Time;durP1;ratioP1;P1;durP2;ratioP2;P2;SDS_P1;SDS_P2;PMS_P1;PMS_P2;Temp;Humidity;BMP_temperature;BMP_pressure;BME280_temperature;BME280_humidity;BME280_pressure;Samples;Min_cycle;Max_cycle;Signal;HPM_P1;HPM_P2
2022/10/12 00:01:40;;;;;;;19.60;10.43;;;;;;;;;;745557;184;823000;-59
2022/10/12 00:04:06;;;;;;;16.57;8.13;;;;;;;;;;743489;186;919676;-58
2022/10/12 00:06:32;;;;;;;15.03;8.83;;;;;;;;;;744307;186;918653;-59
2022/10/12 00:08:58;;;;;;;16.87;9.37;;;;;;;;;;745003;186;918209;-59
2022/10/12 00:11:24;;;;;;;16.85;8.25;;;;;;;;;;745605;185;915880;-60
2022/10/12 00:13:50;;;;;;;15.97;8.47;;;;;;;;;;752274;184;614728;-62
2022/10/12 00:16:16;;;;;;;10.97;8.60;;;;;;;;;;738324;186;918775;-63
2022/10/12 00:18:42;;;;;;;13.90;8.43;;;;;;;;;;743002;187;919695;-62
2022/10/12 00:21:08;;;;;;;16.70;9.55;;;;;;;;;;747462;187;919385;-62
2022/10/12 00:23:34;;;;;;;16.70;10.47;;;;;;;;;;745604;186;914158;-58
2022/10/12 00:26:00;;;;;;;16.40;9.83;;;;;;;;;;742248;187;918978;-62
2022/10/12 00:28:26;;;;;;;15.00;7.97;;;;;;;;;;747641;187;914890;-63
2022/10/12 00:30:52;;;;;;;16.10;7.87;;;;;;;;;;743638;187;915624;-59
2022/10/12 00:33:18;;;;;;;16.20;8.63;;;;;;;;;;742011;187;813693;-59
2022/10/12 00:35:44;;;;;;;13.73;7.80;;;;;;;;;;744231;187;918062;-59
2022/10/12 00:38:10;;;;;;;14.93;9.53;;;;;;;;;;752794;186;621398;-64
2022/10/12 00:40:36;;;;;;;12.97;8.50;;;;;;;;;;743408;187;712457;-59
2022/10/12 00:43:02;;;;;;;10.70;7.70;;;;;;;;;;747780;185;634179;-59
2022/10/12 00:45:27;;;;;;;15.13;7.57;;;;;;;;;;755524;187;613929;-59
2022/10/12 00:47:53;;;;;;;16.47;8.40;;;;;;;;;;748344;187;618555;-63
2022/10/12 00:50:25;;;;;;;12.70;7.70;;;;;;;;;;746371;187;812264;-63
2022/10/12 00:52:52;;;;;;;15.03;7.40;;;;;;;;;;745730;187;918584;-63
2022/10/12 00:55:17;;;;;;;10.87;7.17;;;;;;;;;;746544;187;868968;-59
2022/10/12 00:57:43;;;;;;;16.13;8.33;;;;;;;;;;739784;185;916992;-63
2022/10/12 01:00:09;;;;;;;17.43;9.23;;;;;;;;;;746981;186;628749;-62
2022/10/12 01:02:35;;;;;;;16.15;8.25;;;;;;;;;;749780;187;917191;-59
2022/10/12 01:05:01;;;;;;;16.00;10.10;;;;;;;;;;749066;185;914222;-62
2022/10/12 01:07:27;;;;;;;22.40;10.80;;;;;;;;;;746875;186;916946;-63
2022/10/12 01:09:53;;;;;;;12.83;9.00;;;;;;;;;;748025;187;844418;-59
2022/10/12 01:12:19;;;;;;;13.33;9.80;;;;;;;;;;744359;186;918862;-59
2022/10/12 01:14:44;;;;;;;20.23;10.70;;;;;;;;;;742722;186;919019;-58
2022/10/12 01:17:31;;;;;;;19.67;9.90;;;;;;;;;;748682;187;919094;-59
2022/10/12 01:20:01;;;;;;;15.47;10.20;;;;;;;;;;748312;184;919193;-59
2022/10/12 01:22:27;;;;;;;18.50;10.63;;;;;;;;;;744041;185;918898;-63
2022/10/12 01:24:59;;;;;;;19.97;12.07;;;;;;;;;;742665;187;919704;-62
2022/10/12 01:27:39;;;;;;;17.20;11.17;;;;;;;;;;743962;187;918425;-59
2022/10/12 01:30:05;;;;;;;21.87;12.37;;;;;;;;;;739324;187;820602;-60
2022/10/12 01:32:46;;;;;;;21.53;11.80;;;;;;;;;;743565;185;846875;-59
2022/10/12 01:35:14;;;;;;;27.80;13.33;;;;;;;;;;745065;184;723243;-63
2022/10/12 01:37:42;;;;;;;29.47;11.40;;;;;;;;;;752744;185;624919;-60
2022/10/12 01:40:08;;;;;;;28.73;15.70;;;;;;;;;;748447;187;626939;-60
2022/10/12 01:42:33;;;;;;;22.80;15.27;;;;;;;;;;742132;187;621034;-61
2022/10/12 01:45:04;;;;;;;23.23;15.80;;;;;;;;;;748872;187;816237;-64
2022/10/12 01:47:30;;;;;;;33.10;16.30;;;;;;;;;;745272;187;909948;-64
2022/10/12 01:49:56;;;;;;;28.77;16.43;;;;;;;;;;740885;187;1022195;-64
2022/10/12 01:52:26;;;;;;;23.57;15.87;;;;;;;;;;742549;187;918047;-59
2022/10/12 01:54:52;;;;;;;26.03;16.77;;;;;;;;;;751730;187;856260;-63
2022/10/12 01:57:18;;;;;;;25.93;15.80;;;;;;;;;;743542;187;919523;-60
2022/10/12 01:59:59;;;;;;;28.80;17.77;;;;;;;;;;743073;187;909863;-63
2022/10/12 02:02:28;;;;;;;22.20;16.20;;;;;;;;;;737184;186;1018324;-63
2022/10/12 02:04:59;;;;;;;32.73;16.73;;;;;;;;;;750066;187;915852;-64
2022/10/12 02:07:25;;;;;;;29.77;17.07;;;;;;;;;;740618;186;914944;-62
2022/10/12 02:09:51;;;;;;;29.10;16.27;;;;;;;;;;736263;186;918674;-60
2022/10/12 02:12:17;;;;;;;27.73;16.87;;;;;;;;;;744799;187;920387;-63
2022/10/12 02:14:43;;;;;;;27.55;17.17;;;;;;;;;;749634;185;817877;-64
2022/10/12 02:17:08;;;;;;;26.87;16.80;;;;;;;;;;748520;186;920945;-63
2022/10/12 02:19:35;;;;;;;27.17;16.62;;;;;;;;;;743325;187;1016088;-63
2022/10/12 02:22:01;;;;;;;25.80;17.13;;;;;;;;;;748888;186;813540;-64
2022/10/12 02:24:27;;;;;;;29.07;18.13;;;;;;;;;;741823;185;915860;-64
2022/10/12 02:26:53;;;;;;;24.87;16.67;;;;;;;;;;744958;186;915131;-63
2022/10/12 02:29:19;;;;;;;28.77;16.70;;;;;;;;;;745779;187;915808;-61
2022/10/12 02:31:45;;;;;;;22.00;15.13;;;;;;;;;;751866;187;623618;-59
2022/10/12 02:34:12;;;;;;;27.87;15.70;;;;;;;;;;744811;185;625022;-65
2022/10/12 02:36:54;;;;;;;22.70;15.57;;;;;;;;;;748027;187;626652;-63
2022/10/12 02:39:20;;;;;;;29.37;15.30;;;;;;;;;;741873;187;916714;-63
2022/10/12 02:41:46;;;;;;;27.77;16.33;;;;;;;;;;751762;187;805639;-60
2022/10/12 02:44:11;;;;;;;22.43;15.73;;;;;;;;;;744248;186;833673;-60
2022/10/12 02:46:37;;;;;;;21.07;14.33;;;;;;;;;;738462;186;922651;-60
2022/10/12 02:49:03;;;;;;;25.97;16.57;;;;;;;;;;747880;187;913899;-60
2022/10/12 02:51:29;;;;;;;22.93;14.60;;;;;;;;;;740121;186;919174;-60
2022/10/12 02:53:55;;;;;;;30.90;16.43;;;;;;;;;;738425;187;918628;-60
2022/10/12 02:56:22;;;;;;;29.20;17.23;;;;;;;;;;746590;187;918386;-63
2022/10/12 02:58:47;;;;;;;22.47;15.30;;;;;;;;;;747310;185;941968;-60
2022/10/12 03:01:15;;;;;;;22.60;17.80;;;;;;;;;;736306;186;919696;-60
2022/10/12 03:03:40;;;;;;;19.60;15.07;;;;;;;;;;744074;184;920293;-60
2022/10/12 03:06:05;;;;;;;26.43;14.40;;;;;;;;;;745853;186;818032;-59
2022/10/12 03:08:31;;;;;;;21.43;14.40;;;;;;;;;;745736;187;921335;-60
2022/10/12 03:10:59;;;;;;;22.50;14.90;;;;;;;;;;745767;187;918625;-63
2022/10/12 03:13:25;;;;;;;23.17;14.47;;;;;;;;;;746649;187;816347;-64
2022/10/12 03:15:51;;;;;;;18.73;12.60;;;;;;;;;;741517;187;919506;-60
2022/10/12 03:18:17;;;;;;;23.40;16.30;;;;;;;;;;739044;186;1621754;-60
2022/10/12 03:20:43;;;;;;;22.07;13.70;;;;;;;;;;741794;186;1015502;-60
2022/10/12 03:23:09;;;;;;;25.67;16.10;;;;;;;;;;742513;188;918730;-59
2022/10/12 03:25:34;;;;;;;25.23;15.67;;;;;;;;;;742232;186;918622;-64
2022/10/12 03:28:00;;;;;;;23.83;15.03;;;;;;;;;;743914;186;836252;-63
2022/10/12 03:30:26;;;;;;;21.17;12.63;;;;;;;;;;748598;186;913703;-63
2022/10/12 03:32:52;;;;;;;26.87;16.37;;;;;;;;;;744486;187;919139;-63
2022/10/12 03:35:18;;;;;;;22.20;14.03;;;;;;;;;;742238;187;921355;-63
2022/10/12 03:37:44;;;;;;;23.50;15.70;;;;;;;;;;749399;187;910575;-60
2022/10/12 03:40:10;;;;;;;24.23;15.77;;;;;;;;;;743013;186;919656;-60
2022/10/12 03:42:36;;;;;;;26.30;15.20;;;;;;;;;;741930;187;820892;-63
2022/10/12 03:45:02;;;;;;;24.60;14.77;;;;;;;;;;744831;186;918930;-63
2022/10/12 03:47:28;;;;;;;24.27;14.50;;;;;;;;;;747927;185;916998;-60
2022/10/12 03:49:54;;;;;;;31.77;17.93;;;;;;;;;;742476;184;918201;-60
2022/10/12 03:52:19;;;;;;;31.00;16.87;;;;;;;;;;742659;187;918689;-63
2022/10/12 03:54:45;;;;;;;26.10;17.10;;;;;;;;;;747590;187;919016;-60
2022/10/12 03:57:11;;;;;;;24.40;15.40;;;;;;;;;;742600;187;919427;-64
2022/10/12 03:59:37;;;;;;;25.83;16.67;;;;;;;;;;744966;186;918705;-60
2022/10/12 04:02:03;;;;;;;22.40;14.53;;;;;;;;;;747735;187;812009;-60
2022/10/12 04:04:29;;;;;;;24.75;15.13;;;;;;;;;;742333;187;918931;-60
2022/10/12 04:06:54;;;;;;;29.93;15.40;;;;;;;;;;742091;187;818122;-59
2022/10/12 04:09:20;;;;;;;25.93;16.57;;;;;;;;;;746492;187;919108;-60
2022/10/12 04:11:46;;;;;;;26.50;15.77;;;;;;;;;;740947;185;918437;-60
2022/10/12 04:14:12;;;;;;;28.13;16.50;;;;;;;;;;742954;187;822804;-63
2022/10/12 04:16:38;;;;;;;19.90;14.87;;;;;;;;;;741614;186;919697;-60
2022/10/12 04:19:04;;;;;;;22.00;14.80;;;;;;;;;;749986;185;816231;-63
2022/10/12 04:21:30;;;;;;;26.40;16.70;;;;;;;;;;745843;186;917573;-63
2022/10/12 04:23:56;;;;;;;19.67;13.67;;;;;;;;;;745162;186;816539;-63
2022/10/12 04:26:22;;;;;;;42.97;15.77;;;;;;;;;;747783;185;819223;-59
2022/10/12 04:28:48;;;;;;;24.27;13.53;;;;;;;;;;741424;187;921507;-58
2022/10/12 04:31:13;;;;;;;23.50;15.93;;;;;;;;;;740457;187;913999;-63
2022/10/12 04:33:39;;;;;;;22.47;15.07;;;;;;;;;;745318;187;944448;-60
2022/10/12 04:36:06;;;;;;;22.97;15.40;;;;;;;;;;743902;187;922339;-63
2022/10/12 04:38:31;;;;;;;24.53;16.00;;;;;;;;;;742876;184;918180;-63
2022/10/12 04:40:57;;;;;;;25.70;15.37;;;;;;;;;;746105;185;922816;-63
2022/10/12 04:43:23;;;;;;;23.40;15.53;;;;;;;;;;750329;187;918109;-59
2022/10/12 04:45:53;;;;;;;25.37;16.20;;;;;;;;;;745592;186;918365;-59
2022/10/12 04:48:18;;;;;;;32.30;18.80;;;;;;;;;;743873;187;920784;-60
2022/10/12 04:50:44;;;;;;;24.00;15.40;;;;;;;;;;747311;186;880177;-63
2022/10/12 04:53:10;;;;;;;28.67;18.50;;;;;;;;;;743089;187;817877;-59
2022/10/12 04:55:36;;;;;;;24.20;15.93;;;;;;;;;;743681;187;919521;-63
2022/10/12 04:58:03;;;;;;;29.48;18.15;;;;;;;;;;747518;187;847836;-63
2022/10/12 05:00:28;;;;;;;23.40;16.57;;;;;;;;;;751443;186;919732;-62
2022/10/12 05:02:54;;;;;;;28.90;18.27;;;;;;;;;;741073;187;918150;-60
2022/10/12 05:05:20;;;;;;;32.43;18.00;;;;;;;;;;743483;186;816051;-63
2022/10/12 05:07:46;;;;;;;30.37;19.87;;;;;;;;;;747675;187;922265;-63
2022/10/12 05:10:12;;;;;;;28.33;17.33;;;;;;;;;;741886;187;922997;-60
2022/10/12 05:12:38;;;;;;;33.10;17.30;;;;;;;;;;744583;186;919034;-64
2022/10/12 05:15:04;;;;;;;35.70;18.57;;;;;;;;;;747448;186;852564;-60
2022/10/12 05:17:30;;;;;;;38.90;19.07;;;;;;;;;;743904;185;818926;-60
2022/10/12 05:19:56;;;;;;;43.80;22.37;;;;;;;;;;741783;187;919045;-60
2022/10/12 05:22:21;;;;;;;31.03;21.87;;;;;;;;;;747340;186;904203;-63
2022/10/12 05:24:47;;;;;;;30.55;20.48;;;;;;;;;;741079;185;888514;-62
2022/10/12 05:27:13;;;;;;;35.60;21.53;;;;;;;;;;743053;186;918561;-60
2022/10/12 05:29:39;;;;;;;33.20;19.63;;;;;;;;;;743182;186;902504;-64
2022/10/12 05:32:05;;;;;;;36.80;21.90;;;;;;;;;;749455;186;762770;-63
2022/10/12 05:34:31;;;;;;;30.50;20.53;;;;;;;;;;745739;184;874760;-65
2022/10/12 05:36:57;;;;;;;39.30;20.13;;;;;;;;;;749034;186;645676;-61
2022/10/12 05:39:23;;;;;;;28.30;19.87;;;;;;;;;;750099;187;631864;-64
2022/10/12 05:41:50;;;;;;;32.03;21.03;;;;;;;;;;745274;186;812501;-61
2022/10/12 05:44:15;;;;;;;35.23;21.03;;;;;;;;;;743525;185;909248;-61
2022/10/12 05:46:41;;;;;;;41.58;21.65;;;;;;;;;;748693;185;921821;-59
2022/10/12 05:49:07;;;;;;;36.53;20.60;;;;;;;;;;740963;186;922497;-60
2022/10/12 05:51:33;;;;;;;30.30;21.30;;;;;;;;;;743607;186;869704;-62
2022/10/12 05:53:59;;;;;;;34.10;20.97;;;;;;;;;;744695;186;716175;-63
2022/10/12 05:56:25;;;;;;;34.97;20.90;;;;;;;;;;749904;187;814546;-60
2022/10/12 05:58:51;;;;;;;33.07;19.50;;;;;;;;;;747263;186;813816;-60
2022/10/12 06:01:17;;;;;;;31.63;18.03;;;;;;;;;;743903;187;813117;-64
2022/10/12 06:03:43;;;;;;;34.83;19.40;;;;;;;;;;750338;187;917991;-64
2022/10/12 06:06:08;;;;;;;24.87;16.90;;;;;;;;;;744854;186;819506;-64
2022/10/12 06:08:34;;;;;;;34.20;20.77;;;;;;;;;;743352;187;818121;-63
2022/10/12 06:11:00;;;;;;;36.33;22.80;;;;;;;;;;748752;186;816527;-60
2022/10/12 06:13:26;;;;;;;32.27;18.97;;;;;;;;;;742540;187;917235;-61
2022/10/12 06:15:52;;;;;;;33.10;18.73;;;;;;;;;;741061;186;914763;-65
2022/10/12 06:18:18;;;;;;;32.87;18.00;;;;;;;;;;744275;187;918800;-63
2022/10/12 06:20:44;;;;;;;36.00;20.80;;;;;;;;;;746583;188;868280;-59
2022/10/12 06:23:10;;;;;;;60.50;22.97;;;;;;;;;;736818;186;915331;-60
2022/10/12 06:25:36;;;;;;;32.88;20.30;;;;;;;;;;742387;185;914817;-60
2022/10/12 06:28:02;;;;;;;38.13;19.90;;;;;;;;;;747340;185;918680;-63
2022/10/12 06:30:28;;;;;;;44.63;23.40;;;;;;;;;;742598;187;918313;-60
2022/10/12 06:32:54;;;;;;;44.17;21.77;;;;;;;;;;742834;187;865953;-63
2022/10/12 06:35:19;;;;;;;44.67;21.03;;;;;;;;;;746590;187;915043;-64
2022/10/12 06:37:49;;;;;;;78.37;45.35;;;;;;;;;;743911;187;920831;-60
2022/10/12 06:40:14;;;;;;;32.10;20.97;;;;;;;;;;743674;186;919285;-64
2022/10/12 06:42:40;;;;;;;35.88;20.27;;;;;;;;;;743788;187;917368;-64
2022/10/12 06:45:06;;;;;;;42.97;19.50;;;;;;;;;;746951;186;818734;-63
2022/10/12 06:47:32;;;;;;;29.47;20.43;;;;;;;;;;740989;186;915678;-63
2022/10/12 06:49:58;;;;;;;37.57;26.17;;;;;;;;;;740623;187;919095;-59
2022/10/12 06:52:24;;;;;;;37.13;20.70;;;;;;;;;;746300;187;915402;-64
2022/10/12 06:54:50;;;;;;;39.03;22.07;;;;;;;;;;742331;187;928728;-60
2022/10/12 06:57:16;;;;;;;33.80;21.27;;;;;;;;;;741660;186;915171;-64
2022/10/12 06:59:41;;;;;;;34.83;22.43;;;;;;;;;;746770;187;916490;-64
2022/10/12 07:02:10;;;;;;;31.70;20.50;;;;;;;;;;746729;184;919373;-60
2022/10/12 07:04:36;;;;;;;30.80;20.47;;;;;;;;;;748617;186;918659;-60
2022/10/12 07:07:02;;;;;;;34.33;22.17;;;;;;;;;;741032;186;918092;-60
2022/10/12 07:09:28;;;;;;;41.08;23.27;;;;;;;;;;746889;184;919394;-64
2022/10/12 07:11:53;;;;;;;39.37;22.90;;;;;;;;;;742117;186;921961;-64
2022/10/12 07:14:19;;;;;;;39.33;24.43;;;;;;;;;;741597;187;918449;-63
2022/10/12 07:16:46;;;;;;;29.23;21.63;;;;;;;;;;747194;186;911008;-59
2022/10/12 07:19:11;;;;;;;40.63;22.83;;;;;;;;;;743139;185;816416;-64
2022/10/12 07:21:37;;;;;;;32.65;19.20;;;;;;;;;;741802;187;918840;-64
2022/10/12 07:24:03;;;;;;;38.00;20.53;;;;;;;;;;747642;186;911749;-64
2022/10/12 07:26:30;;;;;;;34.67;20.57;;;;;;;;;;746058;186;804997;-60
2022/10/12 07:28:55;;;;;;;29.73;20.87;;;;;;;;;;744406;187;865236;-60
2022/10/12 07:31:21;;;;;;;32.77;22.00;;;;;;;;;;741537;185;918457;-64
2022/10/12 07:33:47;;;;;;;25.57;18.70;;;;;;;;;;747702;187;913755;-62
2022/10/12 07:36:13;;;;;;;30.30;19.50;;;;;;;;;;741818;187;913794;-64
2022/10/12 07:38:42;;;;;;;31.57;18.57;;;;;;;;;;743280;187;913619;-64
2022/10/12 07:41:05;;;;;;;28.25;17.20;;;;;;;;;;746512;186;913583;-60
2022/10/12 07:43:32;;;;;;;34.80;12.60;;;;;;;;;;742336;185;920417;-66
2022/10/12 07:45:57;;;;;;;26.67;19.00;;;;;;;;;;740926;186;918227;-66
2022/10/12 07:48:22;;;;;;;27.17;17.40;;;;;;;;;;746635;187;923014;-66
2022/10/12 07:50:48;;;;;;;29.13;17.97;;;;;;;;;;745270;187;918364;-65
2022/10/12 07:53:14;;;;;;;29.10;17.80;;;;;;;;;;743492;187;915892;-60
2022/10/12 07:55:40;;;;;;;22.10;16.03;;;;;;;;;;741524;186;917806;-64
2022/10/12 07:58:06;;;;;;;29.53;16.50;;;;;;;;;;745222;188;926973;-64
2022/10/12 08:00:32;;;;;;;27.60;15.60;;;;;;;;;;735384;188;919070;-67
2022/10/12 08:02:57;;;;;;;22.53;15.13;;;;;;;;;;739312;187;887819;-65
2022/10/12 08:05:23;;;;;;;27.77;16.40;;;;;;;;;;746209;186;912732;-65
2022/10/12 08:07:49;;;;;;;26.70;17.63;;;;;;;;;;740100;186;919687;-65
2022/10/12 08:10:16;;;;;;;30.20;18.77;;;;;;;;;;739363;186;918277;-61
2022/10/12 08:12:41;;;;;;;34.45;20.92;;;;;;;;;;747709;187;819593;-60
2022/10/12 08:15:07;;;;;;;26.53;17.20;;;;;;;;;;749042;185;827086;-61
2022/10/12 08:17:33;;;;;;;32.83;18.43;;;;;;;;;;745645;186;942264;-60
2022/10/12 08:19:59;;;;;;;26.33;16.17;;;;;;;;;;746822;186;934696;-61
2022/10/12 08:22:25;;;;;;;33.07;16.73;;;;;;;;;;746759;188;919273;-61
2022/10/12 08:24:51;;;;;;;31.57;17.90;;;;;;;;;;737716;186;916605;-60
2022/10/12 08:27:16;;;;;;;31.42;18.30;;;;;;;;;;743004;187;916477;-65
2022/10/12 08:29:42;;;;;;;32.13;15.80;;;;;;;;;;747197;187;815329;-66
2022/10/12 08:32:08;;;;;;;27.40;16.40;;;;;;;;;;741940;187;914129;-65
2022/10/12 08:34:34;;;;;;;27.55;18.77;;;;;;;;;;742896;185;919060;-60
2022/10/12 08:37:00;;;;;;;29.30;17.00;;;;;;;;;;749822;187;919624;-65
2022/10/12 08:39:26;;;;;;;34.90;18.87;;;;;;;;;;745659;186;815343;-60
2022/10/12 08:41:57;;;;;;;26.73;17.17;;;;;;;;;;735589;186;838236;-59
2022/10/12 08:44:24;;;;;;;27.60;16.80;;;;;;;;;;743147;187;811292;-60
2022/10/12 08:46:50;;;;;;;18.97;12.57;;;;;;;;;;749141;186;819544;-60
2022/10/12 08:49:17;;;;;;;23.77;14.80;;;;;;;;;;742748;186;908235;-65
2022/10/12 08:51:43;;;;;;;25.33;16.80;;;;;;;;;;744659;186;918236;-60
2022/10/12 08:54:11;;;;;;;15.33;10.70;;;;;;;;;;747873;186;816473;-66
2022/10/12 08:56:39;;;;;;;28.10;15.40;;;;;;;;;;744717;187;827965;-60
2022/10/12 08:59:03;;;;;;;25.80;17.57;;;;;;;;;;741885;187;919359;-67
2022/10/12 09:01:36;;;;;;;20.80;12.93;;;;;;;;;;744382;187;825192;-65
2022/10/12 09:04:04;;;;;;;23.63;14.77;;;;;;;;;;748970;186;812074;-65
2022/10/12 09:06:33;;;;;;;24.80;15.50;;;;;;;;;;741178;186;917788;-66
2022/10/12 09:09:11;;;;;;;27.43;15.07;;;;;;;;;;742297;185;917726;-59
2022/10/12 09:11:42;;;;;;;21.73;14.80;;;;;;;;;;742109;186;889027;-65
2022/10/12 09:14:09;;;;;;;26.23;15.83;;;;;;;;;;742076;184;911839;-65
2022/10/12 09:16:35;;;;;;;22.73;15.17;;;;;;;;;;749020;186;813773;-58
2022/10/12 09:19:01;;;;;;;25.57;14.27;;;;;;;;;;746577;187;917620;-65
2022/10/12 09:21:26;;;;;;;32.43;14.83;;;;;;;;;;745480;186;818925;-60
2022/10/12 09:23:52;;;;;;;18.20;9.67;;;;;;;;;;746619;185;914949;-60
2022/10/12 09:26:18;;;;;;;18.53;13.30;;;;;;;;;;743167;186;918715;-60
2022/10/12 09:28:44;;;;;;;20.67;14.50;;;;;;;;;;744338;186;918079;-67
2022/10/12 09:31:11;;;;;;;22.43;13.37;;;;;;;;;;747882;187;918097;-59
2022/10/12 09:33:40;;;;;;;21.77;13.80;;;;;;;;;;742762;184;916508;-60
2022/10/12 09:36:06;;;;;;;25.33;13.43;;;;;;;;;;748501;186;638674;-59
2022/10/12 09:38:32;;;;;;;24.83;13.30;;;;;;;;;;744049;187;647486;-65
2022/10/12 09:40:58;;;;;;;20.37;13.10;;;;;;;;;;750426;187;615111;-65
2022/10/12 09:43:24;;;;;;;20.50;13.70;;;;;;;;;;748489;185;616692;-65
2022/10/12 09:45:50;;;;;;;18.98;10.15;;;;;;;;;;750370;186;634229;-60
2022/10/12 09:48:23;;;;;;;19.70;10.53;;;;;;;;;;747852;187;875778;-66
2022/10/12 09:50:50;;;;;;;26.23;10.37;;;;;;;;;;748983;186;628679;-60
2022/10/12 09:53:18;;;;;;;17.67;10.70;;;;;;;;;;742331;187;916060;-60
2022/10/12 09:55:43;;;;;;;15.50;10.10;;;;;;;;;;743557;184;916345;-60
2022/10/12 09:58:09;;;;;;;14.97;7.90;;;;;;;;;;749409;187;912181;-65
2022/10/12 10:00:35;;;;;;;18.03;9.20;;;;;;;;;;749889;186;653720;-66
2022/10/12 10:03:01;;;;;;;14.70;8.23;;;;;;;;;;746127;187;625204;-60
2022/10/12 10:05:29;;;;;;;17.30;9.07;;;;;;;;;;747867;185;629457;-64
2022/10/12 10:08:00;;;;;;;12.10;7.20;;;;;;;;;;745046;186;822881;-65
2022/10/12 10:10:26;;;;;;;10.07;6.40;;;;;;;;;;736623;186;920037;-60
2022/10/12 10:12:54;;;;;;;16.07;7.43;;;;;;;;;;742374;184;927497;-60
2022/10/12 10:15:22;;;;;;;12.03;7.70;;;;;;;;;;748713;187;918683;-59
2022/10/12 10:17:47;;;;;;;13.50;7.77;;;;;;;;;;744568;187;921128;-65
2022/10/12 10:20:13;;;;;;;14.83;6.50;;;;;;;;;;744232;185;917897;-60
2022/10/12 10:22:39;;;;;;;10.90;8.00;;;;;;;;;;750161;186;625631;-59
2022/10/12 10:25:05;;;;;;;13.03;9.10;;;;;;;;;;749157;187;620853;-66
2022/10/12 10:27:33;;;;;;;12.47;8.10;;;;;;;;;;748795;187;630637;-60
2022/10/12 10:30:05;;;;;;;19.00;10.00;;;;;;;;;;746480;185;918733;-60
2022/10/12 10:32:31;;;;;;;15.77;10.07;;;;;;;;;;742821;187;917277;-59
2022/10/12 10:35:01;;;;;;;18.00;9.60;;;;;;;;;;745617;187;921656;-65
2022/10/12 10:37:26;;;;;;;22.97;8.63;;;;;;;;;;745231;186;918359;-66
2022/10/12 10:39:52;;;;;;;19.80;8.53;;;;;;;;;;746224;186;813629;-59
2022/10/12 10:42:18;;;;;;;8.90;6.20;;;;;;;;;;747517;186;919545;-59
2022/10/12 10:44:45;;;;;;;13.33;8.53;;;;;;;;;;743095;186;917006;-60
2022/10/12 10:47:11;;;;;;;13.50;8.70;;;;;;;;;;741161;187;918963;-60
2022/10/12 10:49:39;;;;;;;14.20;9.00;;;;;;;;;;743847;186;921585;-64
2022/10/12 10:52:05;;;;;;;22.73;8.33;;;;;;;;;;744515;188;916515;-66
2022/10/12 10:54:31;;;;;;;15.43;8.93;;;;;;;;;;740048;185;920502;-59
2022/10/12 10:56:59;;;;;;;20.23;11.80;;;;;;;;;;741588;187;916463;-59
2022/10/12 10:59:41;;;;;;;22.00;11.00;;;;;;;;;;747764;187;894945;-59
2022/10/12 11:02:08;;;;;;;14.00;9.00;;;;;;;;;;751492;186;913762;-59
2022/10/12 11:04:34;;;;;;;15.63;9.00;;;;;;;;;;742051;186;916828;-65
2022/10/12 11:07:00;;;;;;;13.70;10.03;;;;;;;;;;739183;187;918134;-65
2022/10/12 11:09:29;;;;;;;15.07;10.33;;;;;;;;;;744694;185;919321;-60
2022/10/12 11:11:56;;;;;;;14.10;9.37;;;;;;;;;;745466;187;915929;-59
2022/10/12 11:14:21;;;;;;;14.60;9.13;;;;;;;;;;743723;185;718782;-59
2022/10/12 11:16:48;;;;;;;14.07;9.30;;;;;;;;;;749128;184;629785;-60
2022/10/12 11:19:14;;;;;;;14.50;9.30;;;;;;;;;;744634;187;924041;-58
2022/10/12 11:21:42;;;;;;;14.53;7.63;;;;;;;;;;743013;185;922234;-59
2022/10/12 11:24:08;;;;;;;11.43;6.23;;;;;;;;;;745122;186;907009;-59
2022/10/12 11:26:35;;;;;;;12.83;7.53;;;;;;;;;;745566;187;818336;-64
2022/10/12 11:29:01;;;;;;;18.13;8.47;;;;;;;;;;748179;185;817622;-65
2022/10/12 11:31:32;;;;;;;10.83;6.83;;;;;;;;;;743709;184;916602;-59
2022/10/12 11:34:01;;;;;;;9.40;6.20;;;;;;;;;;739414;187;919526;-60
2022/10/12 11:36:24;;;;;;;12.33;8.40;;;;;;;;;;748488;187;816911;-59
2022/10/12 11:38:52;;;;;;;11.60;7.50;;;;;;;;;;742399;187;919001;-66
2022/10/12 11:41:20;;;;;;;11.30;7.50;;;;;;;;;;743275;185;918822;-66
2022/10/12 11:43:45;;;;;;;19.53;7.20;;;;;;;;;;741615;187;913215;-59
2022/10/12 11:46:12;;;;;;;14.77;8.13;;;;;;;;;;747578;187;916088;-59
2022/10/12 11:48:37;;;;;;;12.47;8.13;;;;;;;;;;744579;184;919049;-58
2022/10/12 11:51:03;;;;;;;14.67;9.03;;;;;;;;;;745466;186;918484;-58
2022/10/12 11:53:30;;;;;;;12.47;8.47;;;;;;;;;;748425;184;915066;-64
2022/10/12 11:55:55;;;;;;;19.70;8.23;;;;;;;;;;744945;186;815266;-64
2022/10/12 11:58:21;;;;;;;17.50;8.80;;;;;;;;;;742450;187;918820;-59
2022/10/12 12:00:49;;;;;;;15.53;9.03;;;;;;;;;;752564;186;817107;-58
2022/10/12 12:03:16;;;;;;;18.10;7.50;;;;;;;;;;744775;186;849186;-60
2022/10/12 12:05:41;;;;;;;12.33;7.70;;;;;;;;;;741384;186;919454;-58
2022/10/12 12:08:07;;;;;;;10.47;7.40;;;;;;;;;;751778;186;827112;-58
2022/10/12 12:10:48;;;;;;;12.03;7.97;;;;;;;;;;749442;184;635980;-64
2022/10/12 12:13:16;;;;;;;12.33;7.07;;;;;;;;;;745319;187;819087;-66
2022/10/12 12:15:40;;;;;;;12.33;6.77;;;;;;;;;;742127;186;832333;-65
2022/10/12 12:18:12;;;;;;;15.70;6.83;;;;;;;;;;745508;185;888875;-64
2022/10/12 12:20:56;;;;;;;9.30;6.00;;;;;;;;;;748096;187;826306;-59
2022/10/12 12:23:24;;;;;;;12.25;6.78;;;;;;;;;;745236;186;908300;-64
2022/10/12 12:25:55;;;;;;;12.37;7.27;;;;;;;;;;745466;188;918452;-64
2022/10/12 12:28:21;;;;;;;11.67;6.40;;;;;;;;;;737031;188;805421;-58
2022/10/12 12:30:53;;;;;;;11.27;6.43;;;;;;;;;;742434;186;887807;-59
2022/10/12 12:33:22;;;;;;;8.07;4.77;;;;;;;;;;746402;185;616814;-60
2022/10/12 12:35:52;;;;;;;10.13;6.37;;;;;;;;;;748819;186;634284;-58
2022/10/12 12:38:18;;;;;;;8.07;5.37;;;;;;;;;;746045;186;814224;-64
2022/10/12 12:40:58;;;;;;;11.93;6.13;;;;;;;;;;741067;185;939943;-64
2022/10/12 12:43:37;;;;;;;10.10;5.90;;;;;;;;;;744128;186;769600;-59
2022/10/12 12:46:04;;;;;;;15.13;6.30;;;;;;;;;;741325;186;795667;-58
2022/10/12 12:48:35;;;;;;;10.10;6.30;;;;;;;;;;747068;187;813996;-59
2022/10/12 12:51:01;;;;;;;14.40;6.40;;;;;;;;;;747197;185;747412;-59
2022/10/12 12:53:27;;;;;;;13.53;7.03;;;;;;;;;;746539;186;703204;-58
2022/10/12 12:55:59;;;;;;;10.30;5.33;;;;;;;;;;742016;187;633925;-64
2022/10/12 12:58:25;;;;;;;10.33;6.77;;;;;;;;;;750138;184;632768;-63
2022/10/12 13:00:59;;;;;;;17.50;6.07;;;;;;;;;;746266;187;622027;-65
2022/10/12 13:03:34;;;;;;;11.70;5.93;;;;;;;;;;745338;186;627187;-58
2022/10/12 13:06:00;;;;;;;9.77;6.10;;;;;;;;;;745822;185;631047;-65
2022/10/12 13:08:41;;;;;;;9.70;5.20;;;;;;;;;;743454;187;629145;-65
2022/10/12 13:11:10;;;;;;;13.83;7.57;;;;;;;;;;742991;186;627875;-57
2022/10/12 13:13:35;;;;;;;13.43;8.03;;;;;;;;;;750604;186;901130;-57
2022/10/12 13:16:02;;;;;;;11.45;6.30;;;;;;;;;;745007;187;911225;-58
2022/10/12 13:18:34;;;;;;;11.60;5.40;;;;;;;;;;744386;184;840143;-58
2022/10/12 13:21:00;;;;;;;10.20;6.33;;;;;;;;;;749784;185;615289;-59
2022/10/12 13:23:26;;;;;;;7.13;5.00;;;;;;;;;;749339;186;625564;-65
2022/10/12 13:25:51;;;;;;;10.37;5.30;;;;;;;;;;748156;184;656992;-57
2022/10/12 13:28:21;;;;;;;8.57;5.00;;;;;;;;;;741169;187;919593;-59
2022/10/12 13:30:48;;;;;;;7.97;4.40;;;;;;;;;;744584;186;918921;-64
2022/10/12 13:33:14;;;;;;;9.00;5.30;;;;;;;;;;744143;185;912020;-59
2022/10/12 13:35:42;;;;;;;12.33;5.93;;;;;;;;;;744962;187;913152;-58
2022/10/12 13:38:21;;;;;;;13.00;5.70;;;;;;;;;;746049;187;915591;-58
2022/10/12 13:41:04;;;;;;;9.97;5.13;;;;;;;;;;751563;186;899113;-64
2022/10/12 13:43:30;;;;;;;12.18;7.00;;;;;;;;;;743696;185;852267;-65
2022/10/12 13:45:56;;;;;;;15.53;5.10;;;;;;;;;;743545;187;815834;-60
2022/10/12 13:48:22;;;;;;;272.63;21.93;;;;;;;;;;742740;186;818970;-63
2022/10/12 13:50:50;;;;;;;17.30;5.60;;;;;;;;;;746524;187;633299;-63
2022/10/12 13:53:16;;;;;;;11.80;5.43;;;;;;;;;;747822;186;631008;-64
2022/10/12 13:55:41;;;;;;;14.43;7.30;;;;;;;;;;746130;184;626487;-65
2022/10/12 13:58:09;;;;;;;14.90;7.83;;;;;;;;;;745449;186;890857;-65
2022/10/12 14:00:35;;;;;;;17.10;6.20;;;;;;;;;;745759;185;915048;-59
2022/10/12 14:03:02;;;;;;;9.70;5.97;;;;;;;;;;741180;186;918755;-64
2022/10/12 14:05:27;;;;;;;14.87;6.10;;;;;;;;;;740292;185;920402;-60
2022/10/12 14:07:53;;;;;;;11.25;6.60;;;;;;;;;;743626;186;918683;-60